sensor_id;sensor_type;location;lat;lon;timestamp;temperature;humidity
19805;DHT22;10062;51.052;13.756;2023-10-09T00:01:07;12.00;1.00
19805;DHT22;10062;51.052;13.756;2023-10-09T00:03:44;11.90;1.00
19805;DHT22;10062;51.052;13.756;2023-10-09T00:06:22;12.00;1.00
19805;DHT22;10062;51.052;13.756;2023-10-09T00:09:09;12.00;1.00
19805;DHT22;10062;51.052;13.756;2023-10-09T00:12:01;12.00;1.00
19805;DHT22;10062;51.052;13.756;2023-10-09T00:14:40;12.00;1.00
19805;DHT22;10062;51.052;13.756;2023-10-09T00:17:15;12.00;1.00
19805;DHT22;10062;51.052;13.756;2023-10-09T00:19:54;11.90;1.00
19805;DHT22;10062;51.052;13.756;2023-10-09T00:22:30;11.90;1.00
19805;DHT22;10062;51.052;13.756;2023-10-09T00:25:09;12.00;1.00
19805;DHT22;10062;51.052;13.756;2023-10-09T00:27:42;12.10;1.00
19805;DHT22;10062;51.052;13.756;2023-10-09T00:30:17;12.20;1.00
19805;DHT22;10062;51.052;13.756;2023-10-09T00:32:49;12.10;1.00
19805;DHT22;10062;51.052;13.756;2023-10-09T00:35:29;12.20;1.00
19805;DHT22;10062;51.052;13.756;2023-10-09T00:40:57;12.10;1.00
19805;DHT22;10062;51.052;13.756;2023-10-09T00:43:35;12.10;1.00
19805;DHT22;10062;51.052;13.756;2023-10-09T00:46:08;12.00;1.00
19805;DHT22;10062;51.052;13.756;2023-10-09T00:48:43;11.90;1.00
19805;DHT22;10062;51.052;13.756;2023-10-09T00:51:18;11.90;1.00
19805;DHT22;10062;51.052;13.756;2023-10-09T00:53:53;12.00;1.00
19805;DHT22;10062;51.052;13.756;2023-10-09T00:56:27;12.00;1.00
19805;DHT22;10062;51.052;13.756;2023-10-09T00:59:10;12.10;1.00
19805;DHT22;10062;51.052;13.756;2023-10-09T01:01:46;12.10;1.00
19805;DHT22;10062;51.052;13.756;2023-10-09T01:04:26;12.00;1.00
19805;DHT22;10062;51.052;13.756;2023-10-09T01:07:01;12.10;1.00
19805;DHT22;10062;51.052;13.756;2023-10-09T01:09:45;12.30;1.00
19805;DHT22;10062;51.052;13.756;2023-10-09T01:12:21;12.10;1.00
19805;DHT22;10062;51.052;13.756;2023-10-09T01:14:53;12.20;1.00
19805;DHT22;10062;51.052;13.756;2023-10-09T01:17:26;12.10;1.00
19805;DHT22;10062;51.052;13.756;2023-10-09T01:20:07;12.10;1.00
19805;DHT22;10062;51.052;13.756;2023-10-09T01:22:47;12.00;1.00
19805;DHT22;10062;51.052;13.756;2023-10-09T01:25:22;12.10;1.00
19805;DHT22;10062;51.052;13.756;2023-10-09T01:27:54;12.20;1.00
19805;DHT22;10062;51.052;13.756;2023-10-09T01:30:27;12.20;1.00
19805;DHT22;10062;51.052;13.756;2023-10-09T01:32:59;12.30;1.00
19805;DHT22;10062;51.052;13.756;2023-10-09T01:35:42;12.30;1.00
19805;DHT22;10062;51.052;13.756;2023-10-09T01:38:18;12.30;1.00
19805;DHT22;10062;51.052;13.756;2023-10-09T01:41:02;12.40;1.00
19805;DHT22;10062;51.052;13.756;2023-10-09T01:43:38;12.30;1.00
19805;DHT22;10062;51.052;13.756;2023-10-09T01:46:15;12.30;1.00
19805;DHT22;10062;51.052;13.756;2023-10-09T01:48:50;12.20;1.00
19805;DHT22;10062;51.052;13.756;2023-10-09T01:51:24;12.10;1.00
19805;DHT22;10062;51.052;13.756;2023-10-09T01:53:57;12.10;1.00
19805;DHT22;10062;51.052;13.756;2023-10-09T01:56:30;12.10;1.00
19805;DHT22;10062;51.052;13.756;2023-10-09T01:59:07;12.10;1.00
19805;DHT22;10062;51.052;13.756;2023-10-09T02:01:40;12.10;1.00
19805;DHT22;10062;51.052;13.756;2023-10-09T02:04:18;12.10;1.00
19805;DHT22;10062;51.052;13.756;2023-10-09T02:06:51;12.50;1.00
19805;DHT22;10062;51.052;13.756;2023-10-09T02:09:23;12.10;1.00
19805;DHT22;10062;51.052;13.756;2023-10-09T02:12:03;12.10;1.00
19805;DHT22;10062;51.052;13.756;2023-10-09T02:14:35;12.10;1.00
19805;DHT22;10062;51.052;13.756;2023-10-09T02:17:11;12.00;1.00
19805;DHT22;10062;51.052;13.756;2023-10-09T02:19:49;11.90;1.00
19805;DHT22;10062;51.052;13.756;2023-10-09T02:22:22;12.00;1.00
19805;DHT22;10062;51.052;13.756;2023-10-09T02:24:56;12.00;1.00
19805;DHT22;10062;51.052;13.756;2023-10-09T02:27:37;12.00;1.00
19805;DHT22;10062;51.052;13.756;2023-10-09T02:30:16;12.10;1.00
19805;DHT22;10062;51.052;13.756;2023-10-09T02:32:50;12.20;1.00
19805;DHT22;10062;51.052;13.756;2023-10-09T02:35:24;12.20;1.00
19805;DHT22;10062;51.052;13.756;2023-10-09T02:38:02;12.10;1.00
19805;DHT22;10062;51.052;13.756;2023-10-09T02:40:36;12.10;1.00
19805;DHT22;10062;51.052;13.756;2023-10-09T02:43:33;12.20;1.00
19805;DHT22;10062;51.052;13.756;2023-10-09T02:46:16;12.30;1.00
19805;DHT22;10062;51.052;13.756;2023-10-09T02:48:50;12.20;1.00
19805;DHT22;10062;51.052;13.756;2023-10-09T02:51:23;12.20;1.00
19805;DHT22;10062;51.052;13.756;2023-10-09T02:54:04;12.20;1.00
19805;DHT22;10062;51.052;13.756;2023-10-09T02:56:51;12.20;1.00
19805;DHT22;10062;51.052;13.756;2023-10-09T02:59:28;11.40;1.00
19805;DHT22;10062;51.052;13.756;2023-10-09T03:04:33;12.00;1.00
19805;DHT22;10062;51.052;13.756;2023-10-09T03:07:04;12.00;1.00
19805;DHT22;10062;51.052;13.756;2023-10-09T03:09:37;12.00;1.00
19805;DHT22;10062;51.052;13.756;2023-10-09T03:12:11;12.10;1.00
19805;DHT22;10062;51.052;13.756;2023-10-09T03:14:44;12.10;1.00
19805;DHT22;10062;51.052;13.756;2023-10-09T03:17:16;12.20;1.00
19805;DHT22;10062;51.052;13.756;2023-10-09T03:19:48;12.10;1.00
19805;DHT22;10062;51.052;13.756;2023-10-09T03:22:20;12.30;1.00
19805;DHT22;10062;51.052;13.756;2023-10-09T03:24:52;12.30;1.00
19805;DHT22;10062;51.052;13.756;2023-10-09T03:27:26;9.80;1.00
19805;DHT22;10062;51.052;13.756;2023-10-09T03:29:59;12.10;1.00
19805;DHT22;10062;51.052;13.756;2023-10-09T03:32:35;12.00;1.00
19805;DHT22;10062;51.052;13.756;2023-10-09T03:35:08;12.00;1.00
19805;DHT22;10062;51.052;13.756;2023-10-09T03:37:40;12.00;1.00
19805;DHT22;10062;51.052;13.756;2023-10-09T03:40:12;12.00;1.00
19805;DHT22;10062;51.052;13.756;2023-10-09T03:42:48;12.10;1.00
19805;DHT22;10062;51.052;13.756;2023-10-09T03:45:21;12.10;1.00
19805;DHT22;10062;51.052;13.756;2023-10-09T03:47:58;12.30;1.00
19805;DHT22;10062;51.052;13.756;2023-10-09T03:50:39;11.90;1.00
19805;DHT22;10062;51.052;13.756;2023-10-09T03:53:14;14.00;1.00
19805;DHT22;10062;51.052;13.756;2023-10-09T03:55:46;12.00;1.00
19805;DHT22;10062;51.052;13.756;2023-10-09T03:58:17;12.10;1.00
19805;DHT22;10062;51.052;13.756;2023-10-09T04:00:50;12.10;1.00
19805;DHT22;10062;51.052;13.756;2023-10-09T04:03:22;12.20;1.00
19805;DHT22;10062;51.052;13.756;2023-10-09T04:05:55;12.20;1.00
19805;DHT22;10062;51.052;13.756;2023-10-09T04:08:27;12.20;1.00
19805;DHT22;10062;51.052;13.756;2023-10-09T04:11:00;12.20;1.00
19805;DHT22;10062;51.052;13.756;2023-10-09T04:13:34;12.10;1.00
19805;DHT22;10062;51.052;13.756;2023-10-09T04:16:07;11.90;1.00
19805;DHT22;10062;51.052;13.756;2023-10-09T04:18:59;11.80;1.00
19805;DHT22;10062;51.052;13.756;2023-10-09T04:21:36;11.80;1.00
19805;DHT22;10062;51.052;13.756;2023-10-09T04:24:07;11.80;1.00
19805;DHT22;10062;51.052;13.756;2023-10-09T04:26:54;11.80;1.00
19805;DHT22;10062;51.052;13.756;2023-10-09T04:29:29;11.80;1.00
19805;DHT22;10062;51.052;13.756;2023-10-09T04:32:10;11.70;12.30
19805;DHT22;10062;51.052;13.756;2023-10-09T04:34:46;11.70;20.00
19805;DHT22;10062;51.052;13.756;2023-10-09T04:37:26;11.80;14.70
19805;DHT22;10062;51.052;13.756;2023-10-09T04:40:09;11.80;1.90
19805;DHT22;10062;51.052;13.756;2023-10-09T04:43:04;11.90;2.30
19805;DHT22;10062;51.052;13.756;2023-10-09T04:45:37;11.90;1.00
19805;DHT22;10062;51.052;13.756;2023-10-09T04:48:33;11.90;1.00
19805;DHT22;10062;51.052;13.756;2023-10-09T04:51:08;12.00;1.00
19805;DHT22;10062;51.052;13.756;2023-10-09T04:54:02;11.90;16.70
19805;DHT22;10062;51.052;13.756;2023-10-09T04:59:23;11.90;28.30
19805;DHT22;10062;51.052;13.756;2023-10-09T05:01:55;11.90;73.60
19805;DHT22;10062;51.052;13.756;2023-10-09T05:04:31;11.80;59.00
19805;DHT22;10062;51.052;13.756;2023-10-09T05:07:12;11.90;44.10
19805;DHT22;10062;51.052;13.756;2023-10-09T05:10:15;11.70;50.90
19805;DHT22;10062;51.052;13.756;2023-10-09T05:12:50;11.80;78.20
19805;DHT22;10062;51.052;13.756;2023-10-09T05:15:27;11.80;53.80
19805;DHT22;10062;51.052;13.756;2023-10-09T05:18:00;11.80;70.90
19805;DHT22;10062;51.052;13.756;2023-10-09T05:20:41;11.70;85.90
19805;DHT22;10062;51.052;13.756;2023-10-09T05:23:36;11.80;67.80
19805;DHT22;10062;51.052;13.756;2023-10-09T05:26:15;11.90;32.40
19805;DHT22;10062;51.052;13.756;2023-10-09T05:29:08;11.90;13.60
19805;DHT22;10062;51.052;13.756;2023-10-09T05:31:50;11.70;47.10
19805;DHT22;10062;51.052;13.756;2023-10-09T05:34:34;11.70;37.00
19805;DHT22;10062;51.052;13.756;2023-10-09T05:37:06;11.70;65.20
19805;DHT22;10062;51.052;13.756;2023-10-09T05:39:53;11.40;84.20
19805;DHT22;10062;51.052;13.756;2023-10-09T05:42:49;11.40;98.30
19805;DHT22;10062;51.052;13.756;2023-10-09T05:45:30;11.40;99.90
19805;DHT22;10062;51.052;13.756;2023-10-09T05:48:29;11.30;99.90
19805;DHT22;10062;51.052;13.756;2023-10-09T05:51:26;11.30;99.90
19805;DHT22;10062;51.052;13.756;2023-10-09T05:54:14;11.30;99.90
19805;DHT22;10062;51.052;13.756;2023-10-09T05:57:09;11.10;99.90
19805;DHT22;10062;51.052;13.756;2023-10-09T06:02:48;11.10;99.90
19805;DHT22;10062;51.052;13.756;2023-10-09T06:05:38;11.10;99.90
19805;DHT22;10062;51.052;13.756;2023-10-09T06:08:22;11.20;99.90
19805;DHT22;10062;51.052;13.756;2023-10-09T06:10:59;11.20;99.90
19805;DHT22;10062;51.052;13.756;2023-10-09T06:13:36;11.30;99.90
19805;DHT22;10062;51.052;13.756;2023-10-09T06:18:50;11.30;99.90
19805;DHT22;10062;51.052;13.756;2023-10-09T06:21:38;11.30;99.90
19805;DHT22;10062;51.052;13.756;2023-10-09T06:27:13;11.20;99.90
19805;DHT22;10062;51.052;13.756;2023-10-09T06:29:54;11.20;99.90
19805;DHT22;10062;51.052;13.756;2023-10-09T06:32:40;11.30;99.90
19805;DHT22;10062;51.052;13.756;2023-10-09T06:35:21;11.50;99.90
19805;DHT22;10062;51.052;13.756;2023-10-09T06:40:53;11.60;99.90
19805;DHT22;10062;51.052;13.756;2023-10-09T06:43:49;11.70;99.90
19805;DHT22;10062;51.052;13.756;2023-10-09T06:46:23;11.80;99.90
19805;DHT22;10062;51.052;13.756;2023-10-09T06:49:13;11.80;99.90
19805;DHT22;10062;51.052;13.756;2023-10-09T06:52:03;11.90;99.90
19805;DHT22;10062;51.052;13.756;2023-10-09T06:54:45;11.90;99.90
19805;DHT22;10062;51.052;13.756;2023-10-09T06:57:21;11.90;99.90
19805;DHT22;10062;51.052;13.756;2023-10-09T07:00:12;11.90;99.90
19805;DHT22;10062;51.052;13.756;2023-10-09T07:03:00;11.90;99.90
19805;DHT22;10062;51.052;13.756;2023-10-09T07:05:41;12.00;99.90
19805;DHT22;10062;51.052;13.756;2023-10-09T07:08:35;12.00;99.30
19805;DHT22;10062;51.052;13.756;2023-10-09T07:11:08;12.00;98.80
19805;DHT22;10062;51.052;13.756;2023-10-09T07:14:11;11.90;99.90
19805;DHT22;10062;51.052;13.756;2023-10-09T07:17:05;11.90;99.90
19805;DHT22;10062;51.052;13.756;2023-10-09T07:19:46;11.90;99.90
19805;DHT22;10062;51.052;13.756;2023-10-09T07:22:39;11.90;99.90
19805;DHT22;10062;51.052;13.756;2023-10-09T07:25:23;12.00;99.90
19805;DHT22;10062;51.052;13.756;2023-10-09T07:28:12;12.00;99.90
19805;DHT22;10062;51.052;13.756;2023-10-09T07:30:59;12.00;99.90
19805;DHT22;10062;51.052;13.756;2023-10-09T07:33:33;12.00;99.90
19805;DHT22;10062;51.052;13.756;2023-10-09T07:36:21;12.00;99.90
19805;DHT22;10062;51.052;13.756;2023-10-09T07:39:05;12.00;99.90
19805;DHT22;10062;51.052;13.756;2023-10-09T07:41:47;12.10;99.90
19805;DHT22;10062;51.052;13.756;2023-10-09T07:44:32;12.10;99.90
19805;DHT22;10062;51.052;13.756;2023-10-09T07:47:07;12.00;99.90
19805;DHT22;10062;51.052;13.756;2023-10-09T07:49:50;12.00;99.90
19805;DHT22;10062;51.052;13.756;2023-10-09T07:52:23;12.00;99.90
19805;DHT22;10062;51.052;13.756;2023-10-09T07:54:56;12.00;99.90
19805;DHT22;10062;51.052;13.756;2023-10-09T07:57:35;12.00;99.90
19805;DHT22;10062;51.052;13.756;2023-10-09T08:00:11;12.10;99.90
19805;DHT22;10062;51.052;13.756;2023-10-09T08:03:00;12.20;99.90
19805;DHT22;10062;51.052;13.756;2023-10-09T08:05:34;12.20;99.90
19805;DHT22;10062;51.052;13.756;2023-10-09T08:08:14;12.30;99.90
19805;DHT22;10062;51.052;13.756;2023-10-09T08:11:09;12.30;99.90
19805;DHT22;10062;51.052;13.756;2023-10-09T08:14:00;12.40;99.90
19805;DHT22;10062;51.052;13.756;2023-10-09T08:16:32;12.40;99.90
19805;DHT22;10062;51.052;13.756;2023-10-09T08:19:11;12.50;99.90
19805;DHT22;10062;51.052;13.756;2023-10-09T08:22:04;12.50;99.90
19805;DHT22;10062;51.052;13.756;2023-10-09T08:25:09;12.50;99.90
19805;DHT22;10062;51.052;13.756;2023-10-09T08:27:58;12.60;99.90
19805;DHT22;10062;51.052;13.756;2023-10-09T08:30:50;12.70;99.90
19805;DHT22;10062;51.052;13.756;2023-10-09T08:33:33;12.80;99.90
19805;DHT22;10062;51.052;13.756;2023-10-09T08:36:14;12.70;99.90
19805;DHT22;10062;51.052;13.756;2023-10-09T08:38:47;12.80;99.90
19805;DHT22;10062;51.052;13.756;2023-10-09T08:41:18;12.80;99.90
19805;DHT22;10062;51.052;13.756;2023-10-09T08:43:53;12.80;99.90
19805;DHT22;10062;51.052;13.756;2023-10-09T08:46:27;12.80;99.90
19805;DHT22;10062;51.052;13.756;2023-10-09T08:48:59;12.80;99.90
19805;DHT22;10062;51.052;13.756;2023-10-09T08:51:33;12.80;99.90
19805;DHT22;10062;51.052;13.756;2023-10-09T08:54:08;12.80;99.90
19805;DHT22;10062;51.052;13.756;2023-10-09T08:56:42;12.80;99.90
19805;DHT22;10062;51.052;13.756;2023-10-09T08:59:20;12.80;99.90
19805;DHT22;10062;51.052;13.756;2023-10-09T09:04:34;12.80;99.90
19805;DHT22;10062;51.052;13.756;2023-10-09T09:07:06;12.80;99.90
19805;DHT22;10062;51.052;13.756;2023-10-09T09:09:54;12.90;99.90
19805;DHT22;10062;51.052;13.756;2023-10-09T09:12:27;12.90;99.90
19805;DHT22;10062;51.052;13.756;2023-10-09T09:15:02;12.90;99.90
19805;DHT22;10062;51.052;13.756;2023-10-09T09:17:34;12.90;99.90
19805;DHT22;10062;51.052;13.756;2023-10-09T09:20:19;12.90;99.90
19805;DHT22;10062;51.052;13.756;2023-10-09T09:22:54;12.90;99.90
19805;DHT22;10062;51.052;13.756;2023-10-09T09:25:40;12.90;99.90
19805;DHT22;10062;51.052;13.756;2023-10-09T09:28:15;13.00;99.90
19805;DHT22;10062;51.052;13.756;2023-10-09T09:30:52;13.00;99.90
19805;DHT22;10062;51.052;13.756;2023-10-09T09:33:26;13.10;99.90
19805;DHT22;10062;51.052;13.756;2023-10-09T09:36:04;13.10;99.90
19805;DHT22;10062;51.052;13.756;2023-10-09T09:38:36;13.20;99.90
19805;DHT22;10062;51.052;13.756;2023-10-09T09:41:14;13.30;99.90
19805;DHT22;10062;51.052;13.756;2023-10-09T09:43:56;13.40;99.90
19805;DHT22;10062;51.052;13.756;2023-10-09T09:46:32;13.40;99.90
19805;DHT22;10062;51.052;13.756;2023-10-09T09:49:05;13.50;99.90
19805;DHT22;10062;51.052;13.756;2023-10-09T09:51:42;13.60;99.90
19805;DHT22;10062;51.052;13.756;2023-10-09T09:54:17;13.70;99.90
19805;DHT22;10062;51.052;13.756;2023-10-09T09:56:54;13.70;99.90
19805;DHT22;10062;51.052;13.756;2023-10-09T09:59:29;13.70;99.90
19805;DHT22;10062;51.052;13.756;2023-10-09T10:02:09;13.80;99.90
19805;DHT22;10062;51.052;13.756;2023-10-09T10:04:42;13.80;99.90
19805;DHT22;10062;51.052;13.756;2023-10-09T10:07:20;13.90;99.90
19805;DHT22;10062;51.052;13.756;2023-10-09T10:09:53;13.90;99.90
19805;DHT22;10062;51.052;13.756;2023-10-09T10:12:51;13.90;99.90
19805;DHT22;10062;51.052;13.756;2023-10-09T10:16:05;13.90;99.90
19805;DHT22;10062;51.052;13.756;2023-10-09T10:18:53;14.00;99.90
19805;DHT22;10062;51.052;13.756;2023-10-09T10:21:30;14.00;99.90
19805;DHT22;10062;51.052;13.756;2023-10-09T10:24:42;14.10;99.90
19805;DHT22;10062;51.052;13.756;2023-10-09T10:27:25;14.10;99.90
19805;DHT22;10062;51.052;13.756;2023-10-09T10:30:29;14.10;99.90
19805;DHT22;10062;51.052;13.756;2023-10-09T10:33:13;14.10;99.90
19805;DHT22;10062;51.052;13.756;2023-10-09T10:35:46;14.20;99.90
19805;DHT22;10062;51.052;13.756;2023-10-09T10:38:30;14.20;99.90
19805;DHT22;10062;51.052;13.756;2023-10-09T10:41:10;14.20;99.90
19805;DHT22;10062;51.052;13.756;2023-10-09T10:43:42;14.30;99.90
19805;DHT22;10062;51.052;13.756;2023-10-09T10:46:31;14.30;99.90
19805;DHT22;10062;51.052;13.756;2023-10-09T10:49:08;14.30;99.90
19805;DHT22;10062;51.052;13.756;2023-10-09T10:51:51;14.30;99.90
19805;DHT22;10062;51.052;13.756;2023-10-09T10:54:31;14.20;99.90
19805;DHT22;10062;51.052;13.756;2023-10-09T10:57:36;14.30;99.90
19805;DHT22;10062;51.052;13.756;2023-10-09T11:00:23;14.30;99.90
19805;DHT22;10062;51.052;13.756;2023-10-09T11:03:18;14.40;99.90
19805;DHT22;10062;51.052;13.756;2023-10-09T11:05:54;14.40;99.90
19805;DHT22;10062;51.052;13.756;2023-10-09T11:08:26;14.40;99.90
19805;DHT22;10062;51.052;13.756;2023-10-09T11:11:12;14.40;99.90
19805;DHT22;10062;51.052;13.756;2023-10-09T11:13:46;14.40;99.90
19805;DHT22;10062;51.052;13.756;2023-10-09T11:16:28;14.50;99.90
19805;DHT22;10062;51.052;13.756;2023-10-09T11:19:04;14.50;99.90
19805;DHT22;10062;51.052;13.756;2023-10-09T11:21:44;14.50;99.90
19805;DHT22;10062;51.052;13.756;2023-10-09T11:26:56;14.70;99.90
19805;DHT22;10062;51.052;13.756;2023-10-09T11:29:36;14.70;99.90
19805;DHT22;10062;51.052;13.756;2023-10-09T11:32:25;14.70;99.90
19805;DHT22;10062;51.052;13.756;2023-10-09T11:35:11;14.70;99.90
19805;DHT22;10062;51.052;13.756;2023-10-09T11:37:55;14.70;99.90
19805;DHT22;10062;51.052;13.756;2023-10-09T11:40:29;14.70;99.90
19805;DHT22;10062;51.052;13.756;2023-10-09T11:43:04;14.70;99.90
19805;DHT22;10062;51.052;13.756;2023-10-09T11:45:43;14.60;99.90
19805;DHT22;10062;51.052;13.756;2023-10-09T11:48:25;14.60;99.90
19805;DHT22;10062;51.052;13.756;2023-10-09T11:51:05;14.50;99.90
19805;DHT22;10062;51.052;13.756;2023-10-09T11:53:49;14.60;99.90
19805;DHT22;10062;51.052;13.756;2023-10-09T11:56:21;14.50;99.90
19805;DHT22;10062;51.052;13.756;2023-10-09T11:58:57;14.50;99.90
19805;DHT22;10062;51.052;13.756;2023-10-09T12:01:35;14.50;99.90
19805;DHT22;10062;51.052;13.756;2023-10-09T12:04:07;14.50;99.90
19805;DHT22;10062;51.052;13.756;2023-10-09T12:06:41;14.50;99.90
19805;DHT22;10062;51.052;13.756;2023-10-09T12:11:54;14.60;99.90
19805;DHT22;10062;51.052;13.756;2023-10-09T12:14:26;14.70;99.90
19805;DHT22;10062;51.052;13.756;2023-10-09T12:17:04;14.70;99.90
19805;DHT22;10062;51.052;13.756;2023-10-09T12:19:38;14.70;99.90
19805;DHT22;10062;51.052;13.756;2023-10-09T12:22:11;14.70;99.90
19805;DHT22;10062;51.052;13.756;2023-10-09T12:24:46;14.70;99.90
19805;DHT22;10062;51.052;13.756;2023-10-09T12:27:18;14.70;99.90
19805;DHT22;10062;51.052;13.756;2023-10-09T12:29:50;14.70;99.90
19805;DHT22;10062;51.052;13.756;2023-10-09T12:32:22;14.70;99.90
19805;DHT22;10062;51.052;13.756;2023-10-09T12:34:54;14.70;99.90
19805;DHT22;10062;51.052;13.756;2023-10-09T12:37:28;14.60;99.90
19805;DHT22;10062;51.052;13.756;2023-10-09T12:40:01;14.60;99.90
19805;DHT22;10062;51.052;13.756;2023-10-09T12:42:35;14.60;99.90
19805;DHT22;10062;51.052;13.756;2023-10-09T12:45:08;14.60;99.90
19805;DHT22;10062;51.052;13.756;2023-10-09T12:47:40;14.60;99.90
19805;DHT22;10062;51.052;13.756;2023-10-09T12:50:12;14.60;99.90
19805;DHT22;10062;51.052;13.756;2023-10-09T12:52:46;14.60;99.90
19805;DHT22;10062;51.052;13.756;2023-10-09T12:58:02;14.60;99.90
19805;DHT22;10062;51.052;13.756;2023-10-09T13:00:37;14.60;99.90
19805;DHT22;10062;51.052;13.756;2023-10-09T13:03:14;14.90;99.90
19805;DHT22;10062;51.052;13.756;2023-10-09T13:05:50;14.60;99.90
19805;DHT22;10062;51.052;13.756;2023-10-09T13:08:28;16.30;99.90
19805;DHT22;10062;51.052;13.756;2023-10-09T13:11:07;14.60;99.90
19805;DHT22;10062;51.052;13.756;2023-10-09T13:13:41;14.60;99.90
19805;DHT22;10062;51.052;13.756;2023-10-09T13:16:14;14.70;99.90
19805;DHT22;10062;51.052;13.756;2023-10-09T13:18:54;14.70;99.90
19805;DHT22;10062;51.052;13.756;2023-10-09T13:21:28;14.70;99.90
19805;DHT22;10062;51.052;13.756;2023-10-09T13:24:03;14.70;99.90
19805;DHT22;10062;51.052;13.756;2023-10-09T13:26:35;14.70;99.90
19805;DHT22;10062;51.052;13.756;2023-10-09T13:29:07;14.60;99.90
19805;DHT22;10062;51.052;13.756;2023-10-09T13:31:40;14.60;99.90
19805;DHT22;10062;51.052;13.756;2023-10-09T13:34:17;14.60;99.90
19805;DHT22;10062;51.052;13.756;2023-10-09T13:36:48;14.60;99.90
19805;DHT22;10062;51.052;13.756;2023-10-09T13:39:24;14.60;99.90
19805;DHT22;10062;51.052;13.756;2023-10-09T13:41:57;14.60;99.90
19805;DHT22;10062;51.052;13.756;2023-10-09T13:44:30;14.60;99.90
19805;DHT22;10062;51.052;13.756;2023-10-09T13:47:04;14.60;99.90
19805;DHT22;10062;51.052;13.756;2023-10-09T13:49:36;14.60;99.90
19805;DHT22;10062;51.052;13.756;2023-10-09T13:54:49;14.70;99.90
19805;DHT22;10062;51.052;13.756;2023-10-09T13:57:21;14.70;99.90
19805;DHT22;10062;51.052;13.756;2023-10-09T14:00:01;14.60;99.90
19805;DHT22;10062;51.052;13.756;2023-10-09T14:02:41;14.60;99.90
19805;DHT22;10062;51.052;13.756;2023-10-09T14:05:13;14.60;99.90
19805;DHT22;10062;51.052;13.756;2023-10-09T14:07:45;14.60;99.90
19805;DHT22;10062;51.052;13.756;2023-10-09T14:10:18;14.70;99.90
19805;DHT22;10062;51.052;13.756;2023-10-09T14:12:56;14.70;99.90
19805;DHT22;10062;51.052;13.756;2023-10-09T14:15:28;14.80;99.90
19805;DHT22;10062;51.052;13.756;2023-10-09T14:18:00;14.70;99.90
19805;DHT22;10062;51.052;13.756;2023-10-09T14:20:32;14.70;99.90
19805;DHT22;10062;51.052;13.756;2023-10-09T14:25:39;14.70;99.90
19805;DHT22;10062;51.052;13.756;2023-10-09T14:28:11;14.80;99.90
19805;DHT22;10062;51.052;13.756;2023-10-09T14:30:42;14.80;99.90
19805;DHT22;10062;51.052;13.756;2023-10-09T14:33:14;14.80;99.90
19805;DHT22;10062;51.052;13.756;2023-10-09T14:35:54;14.80;99.90
19805;DHT22;10062;51.052;13.756;2023-10-09T14:38:26;14.80;99.90
19805;DHT22;10062;51.052;13.756;2023-10-09T14:41:05;14.80;99.90
19805;DHT22;10062;51.052;13.756;2023-10-09T14:43:38;14.80;99.90
19805;DHT22;10062;51.052;13.756;2023-10-09T14:46:13;14.80;99.90
19805;DHT22;10062;51.052;13.756;2023-10-09T14:48:45;14.80;99.90
19805;DHT22;10062;51.052;13.756;2023-10-09T14:51:17;14.80;99.90
19805;DHT22;10062;51.052;13.756;2023-10-09T14:53:48;14.80;99.90
19805;DHT22;10062;51.052;13.756;2023-10-09T14:56:21;14.80;99.90
19805;DHT22;10062;51.052;13.756;2023-10-09T14:58:59;14.80;99.90
19805;DHT22;10062;51.052;13.756;2023-10-09T15:01:31;14.80;99.90
19805;DHT22;10062;51.052;13.756;2023-10-09T15:04:03;14.80;99.90
19805;DHT22;10062;51.052;13.756;2023-10-09T15:06:35;14.90;99.90
19805;DHT22;10062;51.052;13.756;2023-10-09T15:09:08;14.80;99.90
19805;DHT22;10062;51.052;13.756;2023-10-09T15:11:41;14.80;99.90
19805;DHT22;10062;51.052;13.756;2023-10-09T15:14:13;14.80;99.90
19805;DHT22;10062;51.052;13.756;2023-10-09T15:16:45;14.70;99.90
19805;DHT22;10062;51.052;13.756;2023-10-09T15:19:17;14.70;99.90
19805;DHT22;10062;51.052;13.756;2023-10-09T15:21:49;14.70;99.90
19805;DHT22;10062;51.052;13.756;2023-10-09T15:24:21;14.70;99.90
19805;DHT22;10062;51.052;13.756;2023-10-09T15:26:55;14.70;99.90
19805;DHT22;10062;51.052;13.756;2023-10-09T15:29:28;14.70;99.90
19805;DHT22;10062;51.052;13.756;2023-10-09T15:32:02;14.70;99.90
19805;DHT22;10062;51.052;13.756;2023-10-09T15:34:38;14.70;99.90
19805;DHT22;10062;51.052;13.756;2023-10-09T15:37:10;14.70;99.90
19805;DHT22;10062;51.052;13.756;2023-10-09T15:39:43;14.70;99.90
19805;DHT22;10062;51.052;13.756;2023-10-09T15:42:17;14.70;99.90
19805;DHT22;10062;51.052;13.756;2023-10-09T15:44:52;14.70;99.90
19805;DHT22;10062;51.052;13.756;2023-10-09T15:47:25;14.70;99.90
19805;DHT22;10062;51.052;13.756;2023-10-09T15:49:57;14.60;99.90
19805;DHT22;10062;51.052;13.756;2023-10-09T15:52:28;14.70;99.90
19805;DHT22;10062;51.052;13.756;2023-10-09T15:55:00;14.70;99.90
19805;DHT22;10062;51.052;13.756;2023-10-09T15:57:33;14.70;99.90
19805;DHT22;10062;51.052;13.756;2023-10-09T16:00:06;14.70;99.90
19805;DHT22;10062;51.052;13.756;2023-10-09T16:02:44;14.70;99.90
19805;DHT22;10062;51.052;13.756;2023-10-09T16:07:48;14.70;99.90
19805;DHT22;10062;51.052;13.756;2023-10-09T16:10:21;14.70;99.90
19805;DHT22;10062;51.052;13.756;2023-10-09T16:12:55;14.60;99.90
19805;DHT22;10062;51.052;13.756;2023-10-09T16:15:28;14.60;99.90
19805;DHT22;10062;51.052;13.756;2023-10-09T16:18:00;14.60;99.90
19805;DHT22;10062;51.052;13.756;2023-10-09T16:20:36;14.60;99.90
19805;DHT22;10062;51.052;13.756;2023-10-09T16:23:08;14.60;99.90
19805;DHT22;10062;51.052;13.756;2023-10-09T16:25:40;14.50;99.90
19805;DHT22;10062;51.052;13.756;2023-10-09T16:28:13;14.50;99.90
19805;DHT22;10062;51.052;13.756;2023-10-09T16:30:46;14.50;99.90
19805;DHT22;10062;51.052;13.756;2023-10-09T16:33:18;14.50;99.90
19805;DHT22;10062;51.052;13.756;2023-10-09T16:35:49;14.60;99.90
19805;DHT22;10062;51.052;13.756;2023-10-09T16:38:25;14.60;99.90
19805;DHT22;10062;51.052;13.756;2023-10-09T16:40:57;12.20;99.90
19805;DHT22;10062;51.052;13.756;2023-10-09T16:43:39;14.60;99.90
19805;DHT22;10062;51.052;13.756;2023-10-09T16:46:12;14.60;99.90
19805;DHT22;10062;51.052;13.756;2023-10-09T16:48:44;14.50;99.90
19805;DHT22;10062;51.052;13.756;2023-10-09T16:51:17;14.60;99.90
19805;DHT22;10062;51.052;13.756;2023-10-09T16:53:52;14.60;99.90
19805;DHT22;10062;51.052;13.756;2023-10-09T16:56:24;14.60;99.90
19805;DHT22;10062;51.052;13.756;2023-10-09T16:59:04;14.70;99.90
19805;DHT22;10062;51.052;13.756;2023-10-09T17:01:44;14.70;99.90
19805;DHT22;10062;51.052;13.756;2023-10-09T17:04:16;14.60;99.90